Heydar Aliyev — 9HFS7 — position and weather

sailwx.info

Track history (hours):
 
Tides and Currents Weather Stations Pressure Air Temp Water Temp Dewpoint Dewpoint Depression Visibility Wind Speed Wind Dir Waves Ship Positions

Heydar Aliyev

Last reported at 2015-Jul-20 05:27 UTC. Time now 2015-Jul-29 04:52 UTC.
Position N 40°35' E 018°42'.
Warning: this ship's position is 8 days out of date.

Length 274 m; draft 16.3 m.

Type: Tanker. MMSI: 215213000.

Date/timePositionNaut miles runAvg speedWind from/ knotsBaromVisibWave heightAir tempDewpointWater temp
2015-Jul-20 05:27N 40°35' E 018°42'1212.2
2015-Jul-20 04:29N 40°26' E 018°52'1212.3
2015-Jul-20 03:33N 40°15' E 018°58'1412.3
2015-Jul-20 02:27N 40°03' E 019°05'1512.5
2015-Jul-20 01:15N 39°49' E 019°13'52112.2
2015-Jul-18 06:33N 33°40' E 026°52'1312.8
2015-Jul-18 05:33N 33°34' E 027°05'5012.1
2015-Jul-18 01:27N 33°15' E 027°60'1312.1
2015-Jul-18 00:24N 33°09' E 028°14'2312.5
2015-Jul-17 22:33N 33°00' E 028°39'1712.9
2015-Jul-17 21:16N 32°54' E 028°57'3813.0
2015-Jul-17 18:22N 32°38' E 029°38'1113.1
2015-Jul-17 17:33N 32°34' E 029°50'1513.1
2015-Jul-17 16:26N 32°28' E 030°06'1112.9
2015-Jul-17 15:33N 32°24' E 030°18'1212.3
2015-Jul-17 14:33N 32°19' E 030°32'1211.6
2015-Jul-17 13:33N 32°14' E 030°44'1211.8
2015-Jul-17 12:33N 32°09' E 030°57'1212.1
2015-Jul-17 11:33N 32°04' E 031°10'1212.1
2015-Jul-17 10:33N 31°60' E 031°23'1512.3
2015-Jul-17 09:22N 31°54' E 031°39'1012.1
2015-Jul-17 08:33N 31°50' E 031°49'1711.5
2015-Jul-17 07:05N 31°40' E 032°05'611.5
2015-Jul-17 06:33N 31°35' E 032°10'1211.5
2015-Jul-17 05:33N 31°28' E 032°21'9 9.3
2015-Jul-17 04:33N 31°19' E 032°22'30 9.9
2015-Jul-17 01:30N 30°49' E 032°19'8 8.8
2015-Jul-17 00:33N 30°41' E 032°20'26 8.0
2015-Jul-16 21:20N 30°16' E 032°28'7 8.8
2015-Jul-16 20:33N 30°11' E 032°34'10 9.4
2015-Jul-16 19:27N 30°01' E 032°35'16 0.6
2015-Jul-15 19:17N 29°45' E 032°35'  
Track history (hours):
 
Tides and Currents Weather Stations Pressure Air Temp Water Temp Dewpoint Dewpoint Depression Visibility Wind Speed Wind Dir Waves Ship Positions

Heydar Aliyev

Last reported at 2015-Jul-20 05:27 UTC. Time now 2015-Jul-29 04:52 UTC.
Position N 40°35' E 018°42'.
Warning: this ship's position is 8 days out of date.

Length 274 m; draft 16.3 m.

Type: Tanker. MMSI: 215213000.

Date/timePositionNaut miles runAvg speedWind from/ knotsBaromVisibWave heightAir tempDewpointWater temp
2015-Jul-20 05:27N 40°35' E 018°42'1212.2
2015-Jul-20 04:29N 40°26' E 018°52'1212.3
2015-Jul-20 03:33N 40°15' E 018°58'1412.3
2015-Jul-20 02:27N 40°03' E 019°05'1512.5
2015-Jul-20 01:15N 39°49' E 019°13'52112.2
2015-Jul-18 06:33N 33°40' E 026°52'1312.8
2015-Jul-18 05:33N 33°34' E 027°05'5012.1
2015-Jul-18 01:27N 33°15' E 027°60'1312.1
2015-Jul-18 00:24N 33°09' E 028°14'2312.5
2015-Jul-17 22:33N 33°00' E 028°39'1712.9
2015-Jul-17 21:16N 32°54' E 028°57'3813.0
2015-Jul-17 18:22N 32°38' E 029°38'1113.1
2015-Jul-17 17:33N 32°34' E 029°50'1513.1
2015-Jul-17 16:26N 32°28' E 030°06'1112.9
2015-Jul-17 15:33N 32°24' E 030°18'1212.3
2015-Jul-17 14:33N 32°19' E 030°32'1211.6
2015-Jul-17 13:33N 32°14' E 030°44'1211.8
2015-Jul-17 12:33N 32°09' E 030°57'1212.1
2015-Jul-17 11:33N 32°04' E 031°10'1212.1
2015-Jul-17 10:33N 31°60' E 031°23'1512.3
2015-Jul-17 09:22N 31°54' E 031°39'1012.1
2015-Jul-17 08:33N 31°50' E 031°49'1711.5
2015-Jul-17 07:05N 31°40' E 032°05'611.5
2015-Jul-17 06:33N 31°35' E 032°10'1211.5
2015-Jul-17 05:33N 31°28' E 032°21'9 9.3
2015-Jul-17 04:33N 31°19' E 032°22'30 9.9
2015-Jul-17 01:30N 30°49' E 032°19'8 8.8
2015-Jul-17 00:33N 30°41' E 032°20'26 8.0
2015-Jul-16 21:20N 30°16' E 032°28'7 8.8
2015-Jul-16 20:33N 30°11' E 032°34'10 9.4
2015-Jul-16 19:27N 30°01' E 032°35'16 0.6
2015-Jul-15 19:17N 29°45' E 032°35'  

Dump ship's entire track history